Time;durP1;ratioP1;P1;durP2;ratioP2;P2;SDS_P1;SDS_P2;PMS_P1;PMS_P2;Temp;Humidity;BMP_temperature;BMP_pressure;BME280_temperature;BME280_humidity;BME280_pressure;Samples;Min_cycle;Max_cycle;Signal;HPM_P1;HPM_P2
2021/05/06 00:32:06;;;;;;;18.58;12.60;;;;;;;10.36;65.98;98831.84;5062051;28;20041;-58
2021/05/06 00:34:33;;;;;;;21.40;14.50;;;;;;;10.26;67.04;98832.16;5043081;28;20056;-59
2021/05/06 00:36:59;;;;;;;22.67;13.75;;;;;;;10.27;66.51;98816.56;5041788;28;20037;-59
2021/05/06 00:39:29;;;;;;;16.50;13.05;;;;;;;10.30;66.76;98818.22;5042742;28;20028;-58
2021/05/06 00:42:07;;;;;;;20.25;14.18;;;;;;;10.25;66.43;98820.97;5042749;28;20025;-58
2021/05/06 00:45:24;;;;;;;17.45;12.80;;;;;;;10.25;66.55;98820.13;5062564;28;20385;-58
2021/05/06 01:01:08;;;;;;;19.50;13.73;;;;;;;9.99;67.67;98814.06;5042511;28;20072;-58
2021/05/06 01:06:21;;;;;;;18.02;11.82;;;;;;;10.04;65.42;98811.34;5062592;28;20056;-58
2021/05/06 01:08:51;;;;;;;18.80;12.70;;;;;;;9.98;67.19;98810.66;5062507;28;20199;-58
2021/05/06 01:11:29;;;;;;;18.92;12.63;;;;;;;9.97;65.75;98811.53;5062460;28;20029;-58
2021/05/06 01:14:02;;;;;;;20.30;12.27;;;;;;;10.01;65.24;98801.94;5046314;28;20068;-58
2021/05/06 01:16:28;;;;;;;17.17;11.73;;;;;;;10.06;65.78;98807.81;5042559;28;20029;-58
2021/05/06 01:18:54;;;;;;;20.70;12.20;;;;;;;10.16;65.37;98804.03;5041342;28;20071;-58
2021/05/06 01:21:20;;;;;;;18.50;12.38;;;;;;;10.11;65.58;98798.16;5042409;28;20021;-58
2021/05/06 01:23:46;;;;;;;17.63;12.05;;;;;;;10.16;65.37;98798.84;5056502;28;20037;-58
2021/05/06 01:26:20;;;;;;;23.42;11.38;;;;;;;10.15;65.13;98804.91;5062218;28;20263;-57
2021/05/06 01:28:52;;;;;;;21.60;13.15;;;;;;;10.05;65.12;98798.38;5062253;28;20058;-57
2021/05/06 01:31:21;;;;;;;15.35;11.82;;;;;;;10.04;64.19;98791.50;5062238;28;20071;-58
2021/05/06 01:34:05;;;;;;;24.60;12.20;;;;;;;10.12;64.52;98792.09;5049769;28;20029;-58
2021/05/06 01:36:37;;;;;;;13.50;10.60;;;;;;;10.09;63.88;98807.72;5045997;28;20053;-58
2021/05/06 01:41:44;;;;;;;16.60;10.98;;;;;;;10.11;63.61;98798.16;5046033;28;20037;-58
2021/05/06 01:50:06;;;;;;;18.27;11.27;;;;;;;10.10;64.86;98793.84;5065773;28;20033;-57
2021/05/06 01:57:57;;;;;;;16.17;10.02;;;;;;;10.07;63.47;98799.16;5045689;28;20033;-57
2021/05/06 02:00:28;;;;;;;14.18;10.48;;;;;;;10.07;63.65;98793.97;5045657;28;20341;-58
2021/05/06 02:02:54;;;;;;;19.25;10.15;;;;;;;10.14;63.85;98790.28;5051914;28;20021;-58
2021/05/06 02:05:20;;;;;;;17.05;10.27;;;;;;;10.04;63.51;98780.31;5065597;28;20040;-58
2021/05/06 02:07:47;;;;;;;16.73;11.10;;;;;;;10.22;63.86;98786.56;5065411;28;20273;-58
2021/05/06 02:10:20;;;;;;;19.95;10.82;;;;;;;9.92;64.62;98735.84;5065482;28;20033;-58
2021/05/06 02:12:46;;;;;;;18.27;9.70;;;;;;;10.33;61.84;98792.22;5060115;28;20092;-58
2021/05/06 02:15:20;;;;;;;19.33;10.82;;;;;;;10.36;62.87;98785.25;5045534;28;20203;-58
2021/05/06 02:17:46;;;;;;;21.92;10.77;;;;;;;10.38;62.97;98798.13;5045361;28;20052;-58
2021/05/06 02:20:14;;;;;;;15.38;11.07;;;;;;;10.34;63.89;98783.59;5045305;28;20068;-58
2021/05/06 02:22:40;;;;;;;15.55;10.65;;;;;;;10.39;63.13;98786.03;5049068;28;20044;-58
2021/05/06 02:25:07;;;;;;;16.27;10.48;;;;;;;10.53;63.22;98789.81;5065110;28;20029;-59
2021/05/06 02:27:34;;;;;;;13.13;9.05;;;;;;;10.58;61.17;98787.06;5065117;28;20036;-58
2021/05/06 02:30:00;;;;;;;17.73;8.70;;;;;;;10.59;60.71;98783.59;5064962;28;20021;-58
2021/05/06 02:32:28;;;;;;;12.02;8.07;;;;;;;10.76;60.83;98780.38;5063261;28;20032;-58
2021/05/06 02:34:58;;;;;;;19.33;8.82;;;;;;;10.87;60.40;98788.59;5044916;28;20040;-58
2021/05/06 02:37:24;;;;;;;11.75;8.88;;;;;;;10.94;60.81;98780.59;5045042;28;20029;-58
2021/05/06 02:39:50;;;;;;;14.63;9.63;;;;;;;11.14;60.21;98783.25;5044881;28;20078;-58
2021/05/06 02:42:16;;;;;;;14.98;9.40;;;;;;;11.16;59.06;98778.00;5045082;28;20056;-59
2021/05/06 02:44:42;;;;;;;18.55;10.68;;;;;;;11.60;60.01;98778.03;5064781;28;20029;-60
2021/05/06 02:47:08;;;;;;;14.55;8.77;;;;;;;11.76;58.37;98775.66;5064815;28;20060;-59
2021/05/06 02:49:35;;;;;;;15.10;8.80;;;;;;;11.77;57.85;98779.91;5064646;28;20025;-58
2021/05/06 02:52:07;;;;;;;16.63;9.32;;;;;;;12.15;58.12;98774.91;5064617;28;20226;-60
2021/05/06 02:54:47;;;;;;;15.77;9.48;;;;;;;12.45;57.34;98777.09;5045834;28;20285;-59
2021/05/06 03:04:49;;;;;;;14.70;9.60;;;;;;;12.79;55.50;98773.00;5024972;28;20295;-59
2021/05/06 03:07:20;;;;;;;13.40;8.25;;;;;;;12.80;55.11;98764.28;5024690;28;20040;-58
2021/05/06 03:12:46;;;;;;;15.13;8.68;;;;;;;13.15;54.33;98769.59;5024570;28;20322;-59
2021/05/06 03:23:25;;;;;;;12.55;7.07;;;;;;;13.79;53.01;98764.84;5041686;28;20033;-59
2021/05/06 03:25:51;;;;;;;15.15;6.97;;;;;;;13.54;51.75;98766.06;5064057;28;20024;-59
2021/05/06 03:28:39;;;;;;;11.82;6.75;;;;;;;13.96;52.20;98764.84;5063984;28;20025;-59
2021/05/06 03:31:36;;;;;;;12.43;6.03;;;;;;;14.14;51.56;98764.84;5063878;28;20028;-59
2021/05/06 03:42:20;;;;;;;12.73;6.18;;;;;;;14.55;50.30;98758.38;5043913;28;20109;-59
2021/05/06 03:50:43;;;;;;;13.57;6.05;;;;;;;14.26;50.21;98750.34;5063538;28;20020;-59
2021/05/06 04:30:57;;;;;;;8.77;4.82;;;;;;;14.64;50.73;98743.13;5023195;28;20045;-60
2021/05/06 04:38:39;;;;;;;7.22;4.93;;;;;;;15.94;47.64;98727.28;5062743;28;20332;-60
2021/05/06 04:41:35;;;;;;;6.95;4.10;;;;;;;16.08;46.97;98737.72;5063344;28;20038;-60
2021/05/06 04:55:05;;;;;;;5.63;4.28;;;;;;;16.54;46.67;98716.63;5061257;28;20268;-59
2021/05/06 05:05:28;;;;;;;10.98;4.75;;;;;;;15.94;48.56;98711.59;5061812;28;20025;-61
2021/05/06 05:08:01;;;;;;;7.97;4.50;;;;;;;15.85;49.00;98713.00;5063041;28;20044;-60
2021/05/06 05:13:11;;;;;;;10.50;4.68;;;;;;;15.64;49.28;98728.09;5064679;28;20256;-60
2021/05/06 05:26:15;;;;;;;6.82;4.28;;;;;;;15.90;49.12;98697.88;5066192;28;20245;-59
2021/05/06 05:28:41;;;;;;;8.65;4.80;;;;;;;15.97;49.28;98708.81;5066039;28;20059;-59
2021/05/06 05:31:06;;;;;;;8.48;4.93;;;;;;;15.81;49.19;98693.22;5065989;28;20029;-60
2021/05/06 05:34:01;;;;;;;10.77;4.43;;;;;;;15.75;49.62;98683.94;5059229;28;20075;-60
2021/05/06 05:36:20;;;;;;;8.55;4.50;;;;;;;16.19;48.07;98701.34;5045910;28;20064;-59
2021/05/06 05:54:40;;;;;;;10.40;4.20;;;;;;;16.12;49.36;98683.53;5050682;28;20029;-58
2021/05/06 05:57:08;;;;;;;6.75;4.18;;;;;;;16.02;50.07;98680.66;5045727;28;20049;-59
2021/05/06 05:59:35;;;;;;;8.60;4.57;;;;;;;16.47;48.77;98681.34;5045466;28;20051;-59
2021/05/06 06:02:01;;;;;;;11.00;4.93;;;;;;;16.26;49.28;98675.72;5045481;28;20060;-58
2021/05/06 06:04:26;;;;;;;13.07;4.60;;;;;;;16.12;49.50;98673.94;5058810;28;20253;-60
2021/05/06 06:06:52;;;;;;;11.73;4.45;;;;;;;16.14;49.39;98676.44;5065476;28;20321;-60
2021/05/06 06:09:18;;;;;;;14.50;4.55;;;;;;;16.16;49.34;98670.19;5065414;28;20025;-59
2021/05/06 06:11:43;;;;;;;10.15;4.97;;;;;;;16.27;49.14;98660.84;5065194;28;20031;-59
2021/05/06 06:14:10;;;;;;;7.63;4.47;;;;;;;16.33;49.50;98656.09;5054226;28;20230;-60
2021/05/06 06:16:38;;;;;;;11.00;4.68;;;;;;;16.23;49.44;98644.53;5044944;28;20033;-62
2021/05/06 06:19:05;;;;;;;7.97;4.50;;;;;;;16.42;48.79;98654.69;5044797;28;20063;-59
2021/05/06 06:23:59;;;;;;;6.75;4.13;;;;;;;16.39;49.03;98641.81;5054124;28;20024;-60
2021/05/06 06:26:25;;;;;;;9.15;3.90;;;;;;;16.37;48.95;98641.06;5065148;28;20028;-59
2021/05/06 06:28:55;;;;;;;10.05;4.40;;;;;;;16.45;49.07;98641.44;5064938;28;20033;-59
2021/05/06 06:31:32;;;;;;;11.18;4.32;;;;;;;16.60;48.60;98625.72;5065012;28;20031;-59
2021/05/06 06:33:58;;;;;;;9.63;4.63;;;;;;;16.85;48.19;98632.84;5056162;28;20033;-59
2021/05/06 06:36:24;;;;;;;8.68;3.97;;;;;;;16.88;48.45;98615.19;5044695;28;20033;-59
2021/05/06 06:38:50;;;;;;;9.90;4.07;;;;;;;16.75;48.57;98616.91;5044812;28;20076;-59
2021/05/06 06:41:16;;;;;;;6.15;3.58;;;;;;;17.30;47.48;98620.34;5044820;28;20037;-60
2021/05/06 06:43:46;;;;;;;7.88;4.20;;;;;;;17.33;46.74;98611.41;5050817;28;20044;-60
2021/05/06 06:46:12;;;;;;;6.15;4.00;;;;;;;17.52;47.56;98608.41;5063608;28;20020;-59
2021/05/06 06:48:38;;;;;;;13.57;4.75;;;;;;;17.03;48.25;98608.13;5064839;28;20029;-59
2021/05/06 06:51:04;;;;;;;12.70;4.00;;;;;;;17.40;47.03;98599.59;5064731;28;20040;-59
2021/05/06 06:53:30;;;;;;;6.72;3.30;;;;;;;17.57;46.57;98606.31;5060238;28;20341;-59
2021/05/06 06:55:57;;;;;;;6.43;3.42;;;;;;;17.55;46.01;98601.19;5044562;28;20029;-59
2021/05/06 06:58:23;;;;;;;9.77;3.60;;;;;;;17.57;45.55;98596.69;5044536;28;20033;-59
2021/05/06 07:00:49;;;;;;;7.78;3.63;;;;;;;17.57;45.18;98590.59;5044474;28;20092;-59
2021/05/06 07:03:15;;;;;;;8.93;3.22;;;;;;;17.51;45.00;98580.56;5046293;28;20044;-61
2021/05/06 07:05:42;;;;;;;9.02;3.85;;;;;;;17.73;44.97;98586.00;5064596;28;20032;-58
2021/05/06 07:08:11;;;;;;;6.55;3.35;;;;;;;17.86;45.83;98570.28;5064175;28;20020;-58
2021/05/06 07:10:37;;;;;;;7.28;3.30;;;;;;;17.98;44.43;98571.22;5064097;28;20040;-59
2021/05/06 07:13:04;;;;;;;5.68;3.17;;;;;;;17.76;45.13;98570.06;5063535;28;20049;-59
2021/05/06 07:15:29;;;;;;;8.27;3.72;;;;;;;17.81;44.80;98567.13;5043945;28;20094;-58
2021/05/06 07:17:55;;;;;;;9.07;2.95;;;;;;;17.92;44.21;98563.81;5044120;28;20033;-58
2021/05/06 07:20:21;;;;;;;5.90;3.08;;;;;;;18.19;43.23;98555.78;5043884;28;20036;-58
2021/05/06 07:22:47;;;;;;;8.45;3.58;;;;;;;18.32;43.58;98554.91;5043042;28;20040;-59
2021/05/06 07:25:13;;;;;;;5.45;2.85;;;;;;;18.09;44.02;98555.59;5061516;28;20029;-59
2021/05/06 07:27:39;;;;;;;7.35;3.10;;;;;;;17.54;44.49;98544.56;5062652;28;20108;-61
2021/05/06 07:30:06;;;;;;;9.02;2.90;;;;;;;17.80;43.81;98554.16;5063563;28;20049;-61
2021/05/06 07:32:33;;;;;;;7.85;2.80;;;;;;;17.89;43.60;98564.81;5063190;28;20020;-59
2021/05/06 07:34:59;;;;;;;8.48;2.90;;;;;;;17.96;43.89;98554.78;5047858;28;20322;-59
2021/05/06 07:37:24;;;;;;;5.45;3.30;;;;;;;17.96;43.74;98552.16;5043554;28;20057;-59
2021/05/06 07:39:51;;;;;;;7.65;2.47;;;;;;;17.89;43.45;98564.00;5042355;28;20059;-60
2021/05/06 07:42:17;;;;;;;6.20;2.83;;;;;;;17.77;43.44;98556.03;5043438;28;20070;-59
2021/05/06 07:44:42;;;;;;;8.13;2.97;;;;;;;17.75;43.36;98555.28;5056368;28;20269;-60
2021/05/06 07:47:11;;;;;;;4.10;3.03;;;;;;;17.67;44.83;98560.25;5063581;28;20033;-60
2021/05/06 07:49:40;;;;;;;3.90;2.67;;;;;;;17.87;43.34;98551.00;5063681;28;20052;-60
2021/05/06 07:52:07;;;;;;;8.32;2.58;;;;;;;17.95;43.15;98558.34;5063449;28;20039;-61
2021/05/06 07:54:33;;;;;;;9.55;3.22;;;;;;;18.38;42.64;98538.72;5051618;28;20049;-61
2021/05/06 07:56:59;;;;;;;4.50;2.30;;;;;;;18.27;42.18;98534.25;5043329;28;20029;-61
2021/05/06 07:59:26;;;;;;;10.02;2.60;;;;;;;18.36;42.07;98536.22;5075589;28;20029;-61
2021/05/06 08:01:52;;;;;;;6.88;2.88;;;;;;;18.58;42.12;98532.88;5043191;28;20033;-59
2021/05/06 08:04:22;;;;;;;10.18;2.75;;;;;;;18.77;41.49;98526.28;5052666;28;20021;-61
2021/05/06 08:06:48;;;;;;;20.58;2.97;;;;;;;18.58;40.65;98527.66;5063211;28;20043;-60
2021/05/06 08:09:14;;;;;;;4.40;2.40;;;;;;;18.80;40.66;98526.88;5062976;28;20109;-62
2021/05/06 08:11:40;;;;;;;8.57;2.95;;;;;;;19.01;40.95;98528.91;5063045;28;20027;-61
2021/05/06 08:14:06;;;;;;;8.20;2.50;;;;;;;18.88;41.58;98541.25;5062987;28;20044;-60
2021/05/06 08:16:32;;;;;;;9.23;2.53;;;;;;;19.06;41.32;98523.28;5062732;28;20127;-62
2021/05/06 08:18:57;;;;;;;8.70;2.90;;;;;;;18.94;40.80;98536.38;5061822;28;20024;-61
2021/05/06 08:21:24;;;;;;;9.20;2.53;;;;;;;19.13;40.58;98524.50;5062725;28;20120;-60
2021/05/06 08:23:50;;;;;;;8.55;2.65;;;;;;;19.12;40.82;98521.03;5057934;28;20063;-62
2021/05/06 08:26:16;;;;;;;8.27;2.40;;;;;;;19.26;40.74;98535.72;5074892;28;20338;-60
2021/05/06 08:28:42;;;;;;;4.13;2.97;;;;;;;19.21;40.26;98526.53;5042887;28;20212;-60
2021/05/06 08:31:08;;;;;;;6.47;2.35;;;;;;;19.01;41.00;98533.28;5041880;28;20029;-61
2021/05/06 08:33:35;;;;;;;7.40;2.35;;;;;;;18.86;41.00;98524.75;5045115;28;20074;-59
2021/05/06 08:36:02;;;;;;;9.95;2.60;;;;;;;18.74;41.62;98523.88;5062694;28;20044;-61
2021/05/06 08:38:27;;;;;;;4.50;2.40;;;;;;;18.92;40.98;98512.03;5062648;28;20040;-59
2021/05/06 08:40:54;;;;;;;11.85;2.88;;;;;;;19.04;41.24;98523.41;5062598;28;20028;-60
2021/05/06 08:43:21;;;;;;;3.42;2.25;;;;;;;18.88;41.03;98520.25;5062328;28;20355;-61
2021/05/06 08:45:50;;;;;;;11.93;3.10;;;;;;;18.95;40.82;98548.56;5042551;28;20029;-61
2021/05/06 08:48:17;;;;;;;13.38;4.15;;;;;;;18.99;41.85;98533.41;5041401;28;20033;-61
2021/05/06 08:50:45;;;;;;;9.57;3.70;;;;;;;19.00;40.48;98495.72;5042451;28;20093;-61
2021/05/06 08:53:12;;;;;;;7.30;3.10;;;;;;;19.05;40.90;98522.44;5042552;28;20033;-62
2021/05/06 08:55:39;;;;;;;13.40;3.42;;;;;;;19.12;41.79;98536.78;5093780;28;20036;-61
2021/05/06 08:58:05;;;;;;;8.40;3.22;;;;;;;18.93;41.22;98507.63;5062512;28;20345;-59
2021/05/06 09:00:32;;;;;;;8.65;3.42;;;;;;;18.99;41.60;98545.69;5062328;28;20025;-62
2021/05/06 09:02:57;;;;;;;6.75;3.08;;;;;;;18.85;41.65;98533.56;5048702;28;20026;-61
2021/05/06 09:05:23;;;;;;;9.68;2.80;;;;;;;18.68;42.77;98530.41;5059012;28;20029;-60
2021/05/06 09:07:49;;;;;;;5.90;3.30;;;;;;;18.65;42.51;98533.25;5062225;28;20025;-59
2021/05/06 09:10:34;;;;;;;12.63;3.30;;;;;;;18.46;42.77;98547.72;5061963;28;20037;-60
2021/05/06 09:13:00;;;;;;;9.88;3.60;;;;;;;18.39;43.13;98562.22;5061940;28;20024;-60
2021/05/06 09:15:26;;;;;;;8.82;3.05;;;;;;;18.09;45.02;98586.22;5045146;28;20261;-60
2021/05/06 09:17:53;;;;;;;6.40;2.60;;;;;;;17.75;46.28;98586.72;5042102;28;20095;-61
2021/05/06 09:20:26;;;;;;;10.05;3.42;;;;;;;17.49;47.54;98606.03;5042305;28;20299;-60
2021/05/06 09:22:57;;;;;;;13.18;3.28;;;;;;;17.72;47.51;98613.13;5042188;28;20045;-62
2021/05/06 09:25:32;;;;;;;12.27;3.63;;;;;;;17.75;48.63;98607.69;5058451;28;20239;-61
2021/05/06 09:28:09;;;;;;;8.82;3.50;;;;;;;17.73;50.29;98629.69;5062096;28;20096;-60
2021/05/06 09:31:00;;;;;;;8.50;3.75;;;;;;;17.15;52.15;98623.97;5061986;28;20214;-60
2021/05/06 09:33:36;;;;;;;8.32;3.40;;;;;;;16.91;52.97;98629.84;5062192;28;20060;-59
2021/05/06 09:36:12;;;;;;;7.45;3.35;;;;;;;16.56;52.45;98593.72;5040770;28;20037;-60
2021/05/06 09:38:45;;;;;;;6.75;3.10;;;;;;;16.52;53.13;98639.28;5042243;28;20044;-60
2021/05/06 09:41:13;;;;;;;5.60;3.33;;;;;;;16.46;54.70;98640.50;5042125;28;20028;-59
2021/05/06 09:43:41;;;;;;;7.88;3.20;;;;;;;16.54;55.49;98634.78;5043439;28;20021;-61
2021/05/06 09:46:30;;;;;;;4.10;2.85;;;;;;;16.40;55.47;98659.16;5061953;28;20074;-60
2021/05/06 09:49:15;;;;;;;5.07;3.10;;;;;;;16.50;54.60;98646.34;5061926;28;20362;-61
2021/05/06 09:51:46;;;;;;;4.38;2.78;;;;;;;16.30;54.48;98621.47;5061876;28;20253;-59
2021/05/06 09:54:19;;;;;;;4.13;2.80;;;;;;;16.35;54.41;98581.06;5056920;28;20029;-59
2021/05/06 09:56:46;;;;;;;5.22;2.80;;;;;;;16.89;53.33;98626.50;5044392;28;20040;-60
2021/05/06 09:59:23;;;;;;;6.00;3.33;;;;;;;16.42;53.38;98583.28;5045556;28;20037;-60
2021/05/06 10:01:49;;;;;;;4.85;3.08;;;;;;;16.79;53.08;98617.50;5045611;28;20320;-60
2021/05/06 10:04:20;;;;;;;5.65;3.00;;;;;;;17.15;52.23;98626.56;5050449;28;20049;-60
2021/05/06 10:07:11;;;;;;;3.40;3.10;;;;;;;17.10;52.26;98618.19;5065753;28;20036;-61
2021/05/06 10:10:00;;;;;;;5.10;2.85;;;;;;;17.00;51.65;98557.78;5062491;28;20037;-61
2021/05/06 10:12:28;;;;;;;4.15;2.85;;;;;;;17.41;51.70;98591.66;5065402;28;20326;-61
2021/05/06 10:14:55;;;;;;;6.32;3.00;;;;;;;17.59;50.53;98601.81;5053690;28;20238;-60
2021/05/06 10:17:22;;;;;;;6.13;2.90;;;;;;;17.46;50.54;98600.97;5045161;28;20044;-60
2021/05/06 10:19:49;;;;;;;4.47;3.10;;;;;;;17.35;50.71;98599.09;5045255;28;20025;-60
2021/05/06 10:22:19;;;;;;;6.05;3.00;;;;;;;16.97;50.66;98558.81;5045348;28;20048;-60
2021/05/06 10:24:46;;;;;;;9.07;3.35;;;;;;;16.92;50.79;98560.91;5054754;28;20340;-61
2021/05/06 10:27:18;;;;;;;4.22;3.33;;;;;;;17.01;51.34;98585.63;5064883;28;20058;-61
2021/05/06 10:29:44;;;;;;;3.38;3.08;;;;;;;17.20;50.69;98601.78;5064867;28;20095;-60
2021/05/06 10:32:12;;;;;;;7.90;3.33;;;;;;;17.16;51.14;98604.69;5064959;28;20393;-60
2021/05/06 10:34:39;;;;;;;8.52;2.95;;;;;;;17.15;52.01;98605.66;5056505;28;20092;-60
2021/05/06 10:37:06;;;;;;;6.88;3.38;;;;;;;17.28;50.78;98622.19;5043238;28;20025;-60
2021/05/06 10:39:42;;;;;;;5.78;2.95;;;;;;;17.10;50.94;98628.66;5044213;28;20025;-60
2021/05/06 10:42:27;;;;;;;7.10;3.33;;;;;;;17.15;51.89;98634.44;5044766;28;20090;-61
2021/05/06 10:44:59;;;;;;;5.65;3.40;;;;;;;16.37;53.73;98588.78;5054771;28;20335;-60
2021/05/06 10:47:49;;;;;;;9.43;3.72;;;;;;;16.07;57.90;98681.19;5064676;28;20352;-59
2021/05/06 10:50:25;;;;;;;4.40;3.20;;;;;;;15.64;57.89;98631.53;5064576;28;20318;-63
2021/05/06 10:52:54;;;;;;;5.55;2.92;;;;;;;15.58;60.08;98682.31;5064599;28;20086;-61
2021/05/06 10:55:50;;;;;;;3.45;3.00;;;;;;;15.53;58.15;98697.38;5050462;28;20033;-62
2021/05/06 10:58:28;;;;;;;7.55;3.38;;;;;;;15.62;58.90;98683.81;5042085;28;20231;-64
2021/05/06 11:01:03;;;;;;;3.22;2.58;;;;;;;15.51;57.44;98674.00;5040591;28;20064;-62
2021/05/06 11:03:30;;;;;;;4.10;2.80;;;;;;;15.50;56.74;98648.00;5043517;28;20110;-62
2021/05/06 11:05:58;;;;;;;3.63;2.97;;;;;;;15.33;58.31;98696.78;5054316;28;20029;-61
2021/05/06 11:08:23;;;;;;;4.18;2.90;;;;;;;15.36;57.64;98701.81;5044186;28;20071;-62
2021/05/06 11:10:49;;;;;;;5.22;3.00;;;;;;;15.50;58.26;98687.97;5032159;28;20034;-62
2021/05/06 11:13:17;;;;;;;4.18;3.47;;;;;;;15.27;60.21;98683.25;5042983;28;20337;-62
2021/05/06 11:15:43;;;;;;;5.18;3.42;;;;;;;14.90;61.44;98670.50;5060494;28;20082;-61
2021/05/06 11:18:11;;;;;;;6.78;3.47;;;;;;;14.96;62.62;98664.09;5057001;28;20057;-61
2021/05/06 11:20:39;;;;;;;3.95;3.50;;;;;;;14.60;60.54;98624.31;5044114;28;20041;-62
2021/05/06 11:23:21;;;;;;;4.05;2.97;;;;;;;14.49;60.89;98624.06;5043880;28;20088;-61
2021/05/06 11:25:50;;;;;;;4.05;3.20;;;;;;;14.36;60.80;98597.03;5060730;28;20036;-61
2021/05/06 11:28:18;;;;;;;5.60;3.70;;;;;;;14.55;60.55;98636.78;5063599;28;20083;-62
2021/05/06 11:30:44;;;;;;;6.32;3.20;;;;;;;14.82;60.19;98641.41;5063945;28;20203;-61
2021/05/06 11:33:16;;;;;;;4.05;3.63;;;;;;;14.72;59.58;98642.84;5043978;28;20029;-62
2021/05/06 11:36:03;;;;;;;5.25;3.30;;;;;;;14.87;60.76;98636.78;5059364;28;20047;-60
2021/05/06 11:38:39;;;;;;;3.42;2.83;;;;;;;14.69;58.58;98653.44;5063326;28;20385;-60
2021/05/06 11:41:12;;;;;;;5.30;2.90;;;;;;;14.80;57.73;98636.28;5063521;28;20028;-62
2021/05/06 11:43:50;;;;;;;3.03;2.60;;;;;;;14.52;57.71;98578.78;5063599;28;20032;-62
2021/05/06 11:46:17;;;;;;;4.40;3.13;;;;;;;14.90;57.49;98630.56;5023767;28;20326;-61
2021/05/06 11:48:44;;;;;;;8.98;3.72;;;;;;;14.97;58.36;98637.13;5023673;28;20057;-62
2021/05/06 11:51:22;;;;;;;5.25;3.33;;;;;;;14.74;58.38;98638.41;5023405;28;20038;-61
2021/05/06 11:54:19;;;;;;;4.30;3.38;;;;;;;14.99;58.23;98630.88;5023544;28;20088;-60
2021/05/06 11:56:54;;;;;;;6.00;3.85;;;;;;;14.76;57.50;98581.81;5035030;28;20029;-60
2021/05/06 11:59:27;;;;;;;7.63;3.67;;;;;;;14.88;57.85;98632.41;5042062;28;20033;-59
2021/05/06 12:01:55;;;;;;;4.75;3.50;;;;;;;15.05;57.97;98607.97;5042404;28;20079;-62
2021/05/06 12:04:24;;;;;;;4.65;3.17;;;;;;;15.02;57.77;98599.41;5042928;28;20341;-59
2021/05/06 12:06:54;;;;;;;7.60;3.83;;;;;;;14.99;57.68;98596.13;5043026;28;20035;-62
2021/05/06 12:09:25;;;;;;;6.55;3.95;;;;;;;14.67;58.09;98538.88;5041658;28;20047;-59
2021/05/06 12:11:52;;;;;;;6.63;3.42;;;;;;;14.92;58.48;98611.31;5042926;28;20188;-60
2021/05/06 12:14:28;;;;;;;8.38;3.70;;;;;;;15.15;58.62;98603.94;5046115;28;20102;-61
2021/05/06 12:16:54;;;;;;;6.30;3.80;;;;;;;15.08;57.54;98589.53;5045652;28;20037;-61
2021/05/06 12:19:20;;;;;;;7.53;3.67;;;;;;;15.17;57.88;98594.25;5026917;28;20210;-61
2021/05/06 12:21:52;;;;;;;6.13;3.45;;;;;;;15.03;58.42;98600.25;5023155;28;20215;-61
2021/05/06 12:24:25;;;;;;;;;;;;;;;15.09;58.28;98599.06;5029769;28;20028;-61
2021/05/06 12:26:51;;;;;;;10.02;3.90;;;;;;;14.75;58.87;98595.75;5062675;28;19979;-60
2021/05/06 12:29:22;;;;;;;5.07;3.28;;;;;;;14.80;59.68;98604.16;5062905;28;20063;-60
2021/05/06 12:31:49;;;;;;;5.43;3.58;;;;;;;14.77;58.96;98588.72;5062822;28;20100;-61
2021/05/06 12:34:21;;;;;;;5.65;3.95;;;;;;;14.88;59.10;98601.13;5060112;28;20025;-61
2021/05/06 12:36:55;;;;;;;7.75;4.13;;;;;;;14.82;60.27;98621.41;5042535;28;20025;-60
2021/05/06 12:39:21;;;;;;;6.90;3.40;;;;;;;14.75;60.79;98587.94;5042466;28;20034;-62
2021/05/06 12:41:52;;;;;;;6.95;3.97;;;;;;;14.64;61.81;98578.13;5042716;28;20045;-63
2021/05/06 12:44:43;;;;;;;7.60;4.13;;;;;;;14.77;61.55;98583.50;5044268;28;20259;-61
2021/05/06 12:47:29;;;;;;;7.13;4.43;;;;;;;14.72;62.75;98564.66;5062403;28;20032;-61
2021/05/06 12:50:14;;;;;;;10.18;4.55;;;;;;;14.75;62.58;98570.56;5062355;28;20025;-60
2021/05/06 12:52:52;;;;;;;5.57;4.13;;;;;;;14.35;60.82;98512.00;5062505;28;20033;-61
2021/05/06 12:55:25;;;;;;;8.20;4.57;;;;;;;14.56;62.17;98549.84;5060541;28;20040;-60
2021/05/06 12:58:19;;;;;;;6.28;4.13;;;;;;;14.80;60.63;98546.81;5062376;28;20044;-60
2021/05/06 13:00:54;;;;;;;6.75;3.97;;;;;;;14.87;60.58;98542.13;5062103;28;20050;-61
2021/05/06 13:03:28;;;;;;;6.82;4.35;;;;;;;14.97;59.83;98557.13;5045556;28;20037;-61
2021/05/06 13:05:54;;;;;;;8.85;4.45;;;;;;;14.93;59.73;98519.09;5044527;28;20077;-60
2021/05/06 13:08:34;;;;;;;5.50;4.38;;;;;;;14.66;59.67;98483.31;5036049;28;20029;-61
2021/05/06 13:11:02;;;;;;;5.35;4.18;;;;;;;15.08;59.52;98527.81;5025935;28;20026;-60
2021/05/06 13:13:43;;;;;;;5.65;3.83;;;;;;;14.96;59.34;98476.38;5037573;28;20110;-60
2021/05/06 13:16:11;;;;;;;5.10;4.30;;;;;;;14.97;58.51;98476.28;5056412;28;20089;-60
2021/05/06 13:18:38;;;;;;;5.55;3.80;;;;;;;15.38;58.87;98521.72;5061963;28;20317;-61
2021/05/06 13:21:22;;;;;;;6.07;3.88;;;;;;;15.30;58.44;98501.28;5060895;28;20070;-61
2021/05/06 13:23:48;;;;;;;5.38;4.13;;;;;;;15.22;58.04;98513.97;5062125;28;20218;-61
2021/05/06 13:26:15;;;;;;;7.05;4.75;;;;;;;15.48;58.24;98511.56;5044261;28;20043;-61
2021/05/06 13:28:43;;;;;;;10.00;4.47;;;;;;;15.52;58.14;98506.06;5030942;28;20026;-61
2021/05/06 13:31:20;;;;;;;12.38;4.60;;;;;;;15.38;58.82;98511.28;5024842;28;20319;-60
2021/05/06 13:33:50;;;;;;;6.07;4.63;;;;;;;15.20;58.05;98471.47;5025071;28;20246;-61
2021/05/06 13:36:20;;;;;;;5.70;3.80;;;;;;;15.64;57.94;98522.72;5060180;28;20032;-61
2021/05/06 13:38:54;;;;;;;4.40;3.65;;;;;;;15.60;58.59;98513.41;5064552;28;20052;-61
2021/05/06 13:41:22;;;;;;;5.65;4.20;;;;;;;15.52;58.22;98518.28;5064610;28;20230;-63
2021/05/06 13:43:48;;;;;;;4.60;3.80;;;;;;;15.33;58.39;98508.09;5065774;28;20064;-63
2021/05/06 13:46:15;;;;;;;5.28;4.00;;;;;;;15.55;58.41;98505.03;5048762;28;20052;-61
2021/05/06 13:48:41;;;;;;;10.63;4.43;;;;;;;15.81;58.20;98518.28;5028654;28;20101;-61
2021/05/06 13:51:09;;;;;;;7.93;4.45;;;;;;;15.69;58.37;98505.03;5025958;28;20125;-61
2021/05/06 13:53:40;;;;;;;5.85;3.92;;;;;;;15.52;58.50;98466.09;5026105;28;20030;-61
2021/05/06 13:56:06;;;;;;;6.80;4.47;;;;;;;15.67;58.02;98506.03;5060331;28;20040;-60
2021/05/06 13:58:32;;;;;;;8.82;4.75;;;;;;;15.82;57.68;98510.34;5065340;28;20222;-60
2021/05/06 14:01:00;;;;;;;5.57;4.00;;;;;;;15.54;57.97;98462.44;5065357;28;20031;-60
2021/05/06 14:03:26;;;;;;;9.45;4.05;;;;;;;15.67;57.73;98509.47;5047965;28;20364;-61
2021/05/06 14:05:52;;;;;;;7.65;4.60;;;;;;;15.75;57.85;98516.00;5058941;28;20052;-61
2021/05/06 14:08:19;;;;;;;9.13;4.72;;;;;;;15.73;57.88;98513.50;5065249;28;20025;-60
2021/05/06 14:10:46;;;;;;;13.32;4.63;;;;;;;15.86;57.27;98529.25;5065413;28;20035;-60
2021/05/06 14:13:14;;;;;;;6.50;4.30;;;;;;;15.65;56.26;98527.03;5065046;28;20039;-59
2021/05/06 14:15:40;;;;;;;11.32;4.18;;;;;;;15.64;56.69;98517.50;5053375;28;20386;-60
2021/05/06 14:18:06;;;;;;;5.22;4.32;;;;;;;15.85;56.63;98515.38;5045372;28;20049;-61
2021/05/06 14:20:32;;;;;;;12.35;4.78;;;;;;;15.67;55.83;98513.88;5045349;28;20029;-61
2021/05/06 14:22:58;;;;;;;6.25;3.55;;;;;;;15.60;55.33;98525.63;5045176;28;20299;-61
2021/05/06 14:25:24;;;;;;;10.90;4.57;;;;;;;15.73;54.73;98521.31;5054339;28;20084;-61
2021/05/06 14:27:50;;;;;;;5.95;3.88;;;;;;;15.87;54.74;98536.19;5064875;28;20044;-61
2021/05/06 14:30:17;;;;;;;6.20;3.90;;;;;;;15.71;52.34;98531.03;5065035;28;20063;-61
2021/05/06 14:32:42;;;;;;;7.10;3.47;;;;;;;15.58;53.44;98533.56;5064930;28;20029;-60
2021/05/06 14:35:09;;;;;;;9.05;3.85;;;;;;;15.58;52.15;98536.16;5057848;28;20058;-60
2021/05/06 14:37:34;;;;;;;4.13;3.38;;;;;;;15.64;51.76;98534.94;5043590;28;20041;-61
2021/05/06 14:40:00;;;;;;;7.25;3.30;;;;;;;15.51;52.63;98520.03;5044326;28;20037;-61
2021/05/06 14:42:26;;;;;;;4.97;3.05;;;;;;;15.50;51.87;98535.78;5044645;28;20025;-60
2021/05/06 14:44:52;;;;;;;6.93;3.33;;;;;;;15.59;53.33;98523.94;5049201;28;20033;-61
2021/05/06 14:47:18;;;;;;;7.07;3.22;;;;;;;15.61;52.04;98532.53;5048266;28;20034;-60
2021/05/06 14:49:44;;;;;;;3.33;3.03;;;;;;;15.62;52.55;98518.53;5044686;28;20018;-60